Time;durP1;ratioP1;P1;durP2;ratioP2;P2;SDS_P1;SDS_P2;PMS_P1;PMS_P2;Temp;Humidity;BMP_temperature;BMP_pressure;BME280_temperature;BME280_humidity;BME280_pressure;Samples;Min_cycle;Max_cycle;Signal;HPM_P1;HPM_P2
2022/07/07 00:01:10;;;;;;;8.30;3.15;;;;;;;;;;5102848;28;20071;-68
2022/07/07 00:03:36;;;;;;;10.35;3.83;;;;;;;;;;5105328;28;20142;-69
2022/07/07 00:06:03;;;;;;;5.45;3.50;;;;;;;;;;5109664;28;20513;-69
2022/07/07 00:08:29;;;;;;;5.53;3.40;;;;;;;;;;5094583;28;20424;-68
2022/07/07 00:10:56;;;;;;;9.02;3.22;;;;;;;;;;5108870;28;20523;-67
2022/07/07 00:13:22;;;;;;;5.25;2.40;;;;;;;;;;5104817;28;20075;-68
2022/07/07 00:15:49;;;;;;;4.80;2.70;;;;;;;;;;5105915;28;20089;-68
2022/07/07 00:18:16;;;;;;;6.28;2.65;;;;;;;;;;5106033;28;20039;-68
2022/07/07 00:20:42;;;;;;;5.05;2.00;;;;;;;;;;5106864;28;20043;-68
2022/07/07 00:23:08;;;;;;;4.18;2.17;;;;;;;;;;5101792;28;20038;-68
2022/07/07 00:25:34;;;;;;;6.50;2.47;;;;;;;;;;5107646;28;20077;-68
2022/07/07 00:28:00;;;;;;;4.38;2.13;;;;;;;;;;5106284;28;20119;-68
2022/07/07 00:30:26;;;;;;;6.97;2.83;;;;;;;;;;5106503;28;20035;-68
2022/07/07 00:32:52;;;;;;;6.75;2.05;;;;;;;;;;5106295;28;20115;-68
2022/07/07 00:35:18;;;;;;;5.90;2.63;;;;;;;;;;5106240;28;20047;-68
2022/07/07 00:37:44;;;;;;;7.18;2.67;;;;;;;;;;5103910;28;20035;-68
2022/07/07 00:40:11;;;;;;;8.95;2.75;;;;;;;;;;5105694;28;20039;-67
2022/07/07 00:42:39;;;;;;;5.20;2.78;;;;;;;;;;5102584;28;20048;-68
2022/07/07 00:45:06;;;;;;;6.95;3.45;;;;;;;;;;5108363;28;20086;-67
2022/07/07 00:47:32;;;;;;;5.28;3.08;;;;;;;;;;5098567;28;20047;-68
2022/07/07 00:49:58;;;;;;;6.65;3.28;;;;;;;;;;5104539;28;20050;-68
2022/07/07 00:52:25;;;;;;;8.50;3.08;;;;;;;;;;5093887;28;20149;-68
2022/07/07 00:54:55;;;;;;;12.13;2.80;;;;;;;;;;5104259;28;20040;-68
2022/07/07 00:57:22;;;;;;;7.75;2.78;;;;;;;;;;5106113;28;20418;-68
2022/07/07 00:59:48;;;;;;;6.45;2.80;;;;;;;;;;5111251;28;20103;-68
2022/07/07 01:02:15;;;;;;;7.72;2.63;;;;;;;;;;5106373;28;20122;-68
2022/07/07 01:04:41;;;;;;;10.38;4.10;;;;;;;;;;5097457;28;20093;-69
2022/07/07 01:07:08;;;;;;;7.80;3.28;;;;;;;;;;5108949;28;20142;-68
2022/07/07 01:09:35;;;;;;;9.32;3.88;;;;;;;;;;5107294;28;20573;-69
2022/07/07 01:12:01;;;;;;;8.30;3.03;;;;;;;;;;5107986;28;20039;-69
2022/07/07 01:14:29;;;;;;;9.68;3.20;;;;;;;;;;5104212;28;20039;-68
2022/07/07 01:16:56;;;;;;;7.82;4.15;;;;;;;;;;5107778;28;20047;-68
2022/07/07 01:19:23;;;;;;;7.53;2.50;;;;;;;;;;5107966;28;20424;-69
2022/07/07 01:21:58;;;;;;;7.85;3.13;;;;;;;;;;5097749;28;20044;-69
2022/07/07 01:24:26;;;;;;;8.93;3.38;;;;;;;;;;5096278;28;20043;-69
2022/07/07 01:27:28;;;;;;;9.52;3.38;;;;;;;;;;5101080;28;20031;-69
2022/07/07 01:29:54;;;;;;;9.13;3.85;;;;;;;;;;5045995;28;20068;-71
2022/07/07 01:32:22;;;;;;;5.97;3.00;;;;;;;;;;5094320;28;20048;-68
2022/07/07 01:34:48;;;;;;;11.35;4.05;;;;;;;;;;5109756;28;20413;-68
2022/07/07 01:37:15;;;;;;;9.50;3.42;;;;;;;;;;5111999;28;20051;-68
2022/07/07 01:39:42;;;;;;;8.40;3.33;;;;;;;;;;5105602;28;20031;-68
2022/07/07 01:42:08;;;;;;;7.78;3.50;;;;;;;;;;5109107;28;20043;-69
2022/07/07 01:44:36;;;;;;;11.65;3.00;;;;;;;;;;5110460;28;20051;-68
2022/07/07 01:47:02;;;;;;;4.50;2.00;;;;;;;;;;5112577;28;20044;-68
2022/07/07 01:49:29;;;;;;;10.20;2.30;;;;;;;;;;5106261;28;20119;-68
2022/07/07 01:51:55;;;;;;;11.23;3.13;;;;;;;;;;5110809;28;20381;-68
2022/07/07 01:54:22;;;;;;;6.93;2.85;;;;;;;;;;5102611;28;20081;-68
2022/07/07 01:56:48;;;;;;;7.53;2.30;;;;;;;;;;5105957;28;20093;-68
2022/07/07 01:59:14;;;;;;;14.55;2.85;;;;;;;;;;5112221;27;20036;-68
2022/07/07 02:01:41;;;;;;;7.10;2.10;;;;;;;;;;5116741;27;20039;-68
2022/07/07 02:04:07;;;;;;;6.22;2.03;;;;;;;;;;5115562;27;20409;-69
2022/07/07 02:06:33;;;;;;;4.40;2.28;;;;;;;;;;5107293;27;20032;-68
2022/07/07 02:09:00;;;;;;;7.45;2.75;;;;;;;;;;5111020;27;20081;-69
2022/07/07 02:11:27;;;;;;;10.70;2.40;;;;;;;;;;5109460;27;20042;-68
2022/07/07 02:13:53;;;;;;;7.68;2.80;;;;;;;;;;5107524;27;20040;-69
2022/07/07 02:16:20;;;;;;;9.13;2.78;;;;;;;;;;5114136;27;20063;-69
2022/07/07 02:18:48;;;;;;;6.50;3.22;;;;;;;;;;5115060;27;20129;-68
2022/07/07 02:21:15;;;;;;;5.65;2.67;;;;;;;;;;5110558;27;20083;-69
2022/07/07 02:23:45;;;;;;;8.05;2.53;;;;;;;;;;5108943;27;20039;-68
2022/07/07 02:26:11;;;;;;;8.82;2.75;;;;;;;;;;5117230;27;20392;-69
2022/07/07 02:28:39;;;;;;;9.18;3.67;;;;;;;;;;5116464;27;20028;-69
2022/07/07 02:31:05;;;;;;;6.65;2.58;;;;;;;;;;5111671;28;20032;-68
2022/07/07 02:33:31;;;;;;;11.05;3.80;;;;;;;;;;5111488;28;20047;-68
2022/07/07 02:35:57;;;;;;;6.32;2.83;;;;;;;;;;5110301;28;20175;-68
2022/07/07 02:38:23;;;;;;;6.53;3.00;;;;;;;;;;5110076;28;20039;-68
2022/07/07 02:40:50;;;;;;;9.70;3.03;;;;;;;;;;5105197;28;20028;-68
2022/07/07 02:43:17;;;;;;;7.75;2.78;;;;;;;;;;5102180;28;20054;-68
2022/07/07 02:45:44;;;;;;;9.07;2.88;;;;;;;;;;5099942;28;20044;-68
2022/07/07 02:48:11;;;;;;;13.60;3.22;;;;;;;;;;5109993;28;20096;-68
2022/07/07 02:50:37;;;;;;;8.80;3.70;;;;;;;;;;5108173;28;20456;-67
2022/07/07 02:53:04;;;;;;;12.35;3.30;;;;;;;;;;5110124;28;20419;-68
2022/07/07 02:55:30;;;;;;;10.85;3.58;;;;;;;;;;5104493;28;20039;-68
2022/07/07 02:57:57;;;;;;;7.93;3.35;;;;;;;;;;5106018;28;20040;-68
2022/07/07 03:00:23;;;;;;;11.77;3.75;;;;;;;;;;5110343;27;20038;-68
2022/07/07 03:02:49;;;;;;;9.55;3.13;;;;;;;;;;5105472;28;20042;-68
2022/07/07 03:05:15;;;;;;;7.95;2.35;;;;;;;;;;5101790;28;20404;-68
2022/07/07 03:07:41;;;;;;;14.48;2.72;;;;;;;;;;5108953;28;20079;-68
2022/07/07 03:10:08;;;;;;;4.85;2.10;;;;;;;;;;5100820;28;20124;-68
2022/07/07 03:12:34;;;;;;;8.80;2.60;;;;;;;;;;5105010;28;20075;-68
2022/07/07 03:15:01;;;;;;;4.95;1.95;;;;;;;;;;5109089;28;20119;-68
2022/07/07 03:17:27;;;;;;;9.85;2.22;;;;;;;;;;5108871;28;20083;-68
2022/07/07 03:19:53;;;;;;;4.40;2.33;;;;;;;;;;5107017;27;20482;-68
2022/07/07 03:22:19;;;;;;;7.75;2.17;;;;;;;;;;5112274;27;20035;-69
2022/07/07 03:24:45;;;;;;;3.30;1.35;;;;;;;;;;5090351;28;20067;-69
2022/07/07 03:27:11;;;;;;;13.05;1.95;;;;;;;;;;5108562;27;20043;-69
2022/07/07 03:29:38;;;;;;;3.15;1.52;;;;;;;;;;5100469;27;20306;-68
2022/07/07 03:32:04;;;;;;;3.47;1.70;;;;;;;;;;5109871;28;20035;-68
2022/07/07 03:34:31;;;;;;;4.20;1.38;;;;;;;;;;5107046;28;20046;-68
2022/07/07 03:36:57;;;;;;;5.63;1.50;;;;;;;;;;5101291;28;20136;-68
2022/07/07 03:39:24;;;;;;;6.28;1.80;;;;;;;;;;5108978;28;20043;-68
2022/07/07 03:41:50;;;;;;;2.63;1.35;;;;;;;;;;5109014;28;20043;-68
2022/07/07 03:44:16;;;;;;;8.50;1.58;;;;;;;;;;5107701;28;20094;-67
2022/07/07 03:46:42;;;;;;;5.10;1.73;;;;;;;;;;5101388;28;20044;-67
2022/07/07 03:49:08;;;;;;;6.03;1.85;;;;;;;;;;5104719;28;20039;-68
2022/07/07 03:51:35;;;;;;;6.72;1.73;;;;;;;;;;5108821;28;20046;-68
2022/07/07 03:54:01;;;;;;;4.47;1.52;;;;;;;;;;5106717;28;20477;-68
2022/07/07 03:56:27;;;;;;;5.72;1.65;;;;;;;;;;5108127;28;20074;-68
2022/07/07 03:58:53;;;;;;;8.90;2.38;;;;;;;;;;5121458;27;20032;-68
2022/07/07 04:01:19;;;;;;;6.15;1.95;;;;;;;;;;5108224;28;20099;-68
2022/07/07 04:03:45;;;;;;;3.17;1.35;;;;;;;;;;5107413;28;20040;-68
2022/07/07 04:06:11;;;;;;;1.70;0.75;;;;;;;;;;5107718;28;20040;-69
2022/07/07 04:08:38;;;;;;;3.33;1.35;;;;;;;;;;5121830;27;20036;-68
2022/07/07 04:11:04;;;;;;;6.70;1.25;;;;;;;;;;5106738;28;20552;-68
2022/07/07 04:13:30;;;;;;;3.08;1.75;;;;;;;;;;5082158;28;20036;-68
2022/07/07 04:15:57;;;;;;;6.68;1.50;;;;;;;;;;5106222;28;20070;-68
2022/07/07 04:18:24;;;;;;;3.45;1.30;;;;;;;;;;5106391;28;20130;-68
2022/07/07 04:20:52;;;;;;;5.25;1.63;;;;;;;;;;5105751;28;20490;-68
2022/07/07 04:23:18;;;;;;;15.55;2.15;;;;;;;;;;5103155;28;20045;-68
2022/07/07 04:25:44;;;;;;;6.28;2.13;;;;;;;;;;5106285;28;20039;-68
2022/07/07 04:28:11;;;;;;;4.70;1.92;;;;;;;;;;5108974;28;20449;-68
2022/07/07 04:30:37;;;;;;;5.45;1.77;;;;;;;;;;5109364;28;20292;-68
2022/07/07 04:33:03;;;;;;;6.75;1.63;;;;;;;;;;5089399;28;20035;-68
2022/07/07 04:35:29;;;;;;;6.88;2.13;;;;;;;;;;5105612;28;20047;-68
2022/07/07 04:37:55;;;;;;;6.95;2.30;;;;;;;;;;5109506;28;20044;-68
2022/07/07 04:40:22;;;;;;;9.07;3.08;;;;;;;;;;5100747;28;20036;-68
2022/07/07 04:42:48;;;;;;;10.60;2.53;;;;;;;;;;5102009;28;20039;-67
2022/07/07 04:45:14;;;;;;;8.20;2.90;;;;;;;;;;5099328;28;20051;-68
2022/07/07 04:47:41;;;;;;;10.75;3.63;;;;;;;;;;5104599;28;20047;-68
2022/07/07 04:50:10;;;;;;;5.20;2.40;;;;;;;;;;5104670;28;20446;-68
2022/07/07 04:52:38;;;;;;;8.23;2.63;;;;;;;;;;5099981;28;20467;-68
2022/07/07 04:55:05;;;;;;;11.30;3.13;;;;;;;;;;5101276;28;20047;-68
2022/07/07 04:57:31;;;;;;;11.05;2.42;;;;;;;;;;5104116;28;20075;-69
2022/07/07 04:59:57;;;;;;;9.23;3.45;;;;;;;;;;5106439;28;20043;-68
2022/07/07 05:02:24;;;;;;;11.80;2.75;;;;;;;;;;5104872;28;20553;-68
2022/07/07 05:04:50;;;;;;;8.35;3.33;;;;;;;;;;5118926;28;20035;-68
2022/07/07 05:07:17;;;;;;;10.80;3.22;;;;;;;;;;5108375;27;20032;-68
2022/07/07 05:09:43;;;;;;;9.50;2.40;;;;;;;;;;5108369;28;20033;-68
2022/07/07 05:12:10;;;;;;;7.88;2.38;;;;;;;;;;5110977;28;20517;-68
2022/07/07 05:14:36;;;;;;;9.15;2.85;;;;;;;;;;5109217;28;20036;-68
2022/07/07 05:17:02;;;;;;;4.80;1.65;;;;;;;;;;5112242;28;20071;-68
2022/07/07 05:19:28;;;;;;;9.10;2.38;;;;;;;;;;5107305;28;20051;-68
2022/07/07 05:21:55;;;;;;;5.38;2.03;;;;;;;;;;5111788;28;20072;-68
2022/07/07 05:24:21;;;;;;;7.30;2.30;;;;;;;;;;5109887;28;20040;-68
2022/07/07 05:26:47;;;;;;;4.93;2.58;;;;;;;;;;5111469;28;20027;-68
2022/07/07 05:29:14;;;;;;;7.35;2.03;;;;;;;;;;5114159;27;20042;-68
2022/07/07 05:31:40;;;;;;;11.13;2.97;;;;;;;;;;5097803;28;20418;-69
2022/07/07 05:34:07;;;;;;;8.05;2.50;;;;;;;;;;5097041;28;20046;-68
2022/07/07 05:36:33;;;;;;;4.07;1.88;;;;;;;;;;5107106;28;20108;-68
2022/07/07 05:39:00;;;;;;;4.85;2.20;;;;;;;;;;5111443;27;20043;-69
2022/07/07 05:41:26;;;;;;;3.83;1.52;;;;;;;;;;5109208;28;20039;-68
2022/07/07 05:43:52;;;;;;;6.68;1.88;;;;;;;;;;5103087;28;20185;-68
2022/07/07 05:46:18;;;;;;;8.07;2.30;;;;;;;;;;5112632;28;20031;-68
2022/07/07 05:48:44;;;;;;;5.18;1.70;;;;;;;;;;5109178;28;20126;-68
2022/07/07 05:51:11;;;;;;;9.45;2.47;;;;;;;;;;5109003;28;20161;-68
2022/07/07 05:53:37;;;;;;;9.23;2.70;;;;;;;;;;5109093;28;20040;-68
2022/07/07 05:56:03;;;;;;;10.05;2.80;;;;;;;;;;5110712;28;20139;-68
2022/07/07 05:58:29;;;;;;;5.10;2.03;;;;;;;;;;5111565;27;20036;-68
2022/07/07 06:00:56;;;;;;;9.10;2.85;;;;;;;;;;5109797;28;20035;-68
2022/07/07 06:03:22;;;;;;;3.53;1.90;;;;;;;;;;5112652;27;20401;-68
2022/07/07 06:05:49;;;;;;;4.65;1.88;;;;;;;;;;5105057;27;20118;-68
2022/07/07 06:08:17;;;;;;;4.45;1.95;;;;;;;;;;5113434;27;20034;-68
2022/07/07 06:10:45;;;;;;;2.85;1.10;;;;;;;;;;5115407;27;20174;-68
2022/07/07 06:13:11;;;;;;;1.95;0.98;;;;;;;;;;5109490;27;20043;-68
2022/07/07 06:15:38;;;;;;;2.45;1.25;;;;;;;;;;5106537;28;20080;-68
2022/07/07 06:18:04;;;;;;;2.35;0.95;;;;;;;;;;5110217;28;20040;-68
2022/07/07 06:20:31;;;;;;;2.47;1.05;;;;;;;;;;5103897;28;20054;-68
2022/07/07 06:22:57;;;;;;;4.90;1.30;;;;;;;;;;5106433;28;20492;-68
2022/07/07 06:25:24;;;;;;;4.80;1.55;;;;;;;;;;5109509;28;20067;-68
2022/07/07 06:27:50;;;;;;;3.85;1.00;;;;;;;;;;5109833;28;20094;-68
2022/07/07 06:30:16;;;;;;;3.00;1.00;;;;;;;;;;5110145;28;20561;-68
2022/07/07 06:32:42;;;;;;;3.45;1.20;;;;;;;;;;5107753;28;20024;-68
2022/07/07 06:35:08;;;;;;;3.30;1.17;;;;;;;;;;5109305;28;20099;-68
2022/07/07 06:37:35;;;;;;;4.13;1.98;;;;;;;;;;5111185;28;20097;-68
2022/07/07 06:40:01;;;;;;;4.57;1.02;;;;;;;;;;5109856;27;20035;-68
2022/07/07 06:42:27;;;;;;;2.95;1.17;;;;;;;;;;5102863;28;20039;-68
2022/07/07 06:44:54;;;;;;;5.18;2.00;;;;;;;;;;5098210;28;20520;-68
2022/07/07 06:47:20;;;;;;;4.57;1.98;;;;;;;;;;5108379;28;20048;-73
2022/07/07 06:49:46;;;;;;;7.05;2.03;;;;;;;;;;5099512;28;20040;-73
2022/07/07 06:52:12;;;;;;;8.15;2.33;;;;;;;;;;5102901;28;20027;-73
2022/07/07 06:54:39;;;;;;;6.55;2.10;;;;;;;;;;5100176;28;20050;-73
2022/07/07 06:57:06;;;;;;;3.33;1.70;;;;;;;;;;5109484;28;20405;-73
2022/07/07 06:59:33;;;;;;;3.97;1.75;;;;;;;;;;5104271;28;20039;-73
2022/07/07 07:01:59;;;;;;;3.83;1.55;;;;;;;;;;5107905;28;20075;-73
2022/07/07 07:04:26;;;;;;;3.90;1.60;;;;;;;;;;5088867;28;20044;-73
2022/07/07 07:06:52;;;;;;;6.88;1.92;;;;;;;;;;5111376;27;20043;-73
2022/07/07 07:09:18;;;;;;;3.47;1.83;;;;;;;;;;5108673;27;20040;-73
2022/07/07 07:11:45;;;;;;;7.15;1.67;;;;;;;;;;5108228;27;20027;-73
2022/07/07 07:14:13;;;;;;;4.75;1.40;;;;;;;;;;5111001;27;20122;-73
2022/07/07 07:16:39;;;;;;;8.45;2.20;;;;;;;;;;5098097;27;20043;-73
2022/07/07 07:19:05;;;;;;;2.90;1.45;;;;;;;;;;5093136;28;20039;-73
2022/07/07 07:21:32;;;;;;;7.50;1.90;;;;;;;;;;5104894;27;20052;-73
2022/07/07 07:23:58;;;;;;;6.28;1.77;;;;;;;;;;5108287;28;20031;-73
2022/07/07 07:26:24;;;;;;;4.53;2.22;;;;;;;;;;5106392;28;20046;-72
2022/07/07 07:28:51;;;;;;;5.45;1.65;;;;;;;;;;5102832;27;20039;-72
2022/07/07 07:31:17;;;;;;;4.03;1.30;;;;;;;;;;5100825;28;20055;-73
2022/07/07 07:33:43;;;;;;;3.70;1.52;;;;;;;;;;5091161;28;20038;-73
2022/07/07 07:36:10;;;;;;;6.82;1.90;;;;;;;;;;5104015;27;20080;-73
2022/07/07 07:38:37;;;;;;;6.35;1.73;;;;;;;;;;5115454;27;20043;-73
2022/07/07 07:41:04;;;;;;;2.95;1.17;;;;;;;;;;5106098;28;20044;-73
2022/07/07 07:43:31;;;;;;;3.80;1.67;;;;;;;;;;5105386;27;20035;-72
2022/07/07 07:45:57;;;;;;;6.90;1.92;;;;;;;;;;5114280;27;20087;-72
2022/07/07 07:48:23;;;;;;;6.43;2.00;;;;;;;;;;5109689;28;20028;-72
2022/07/07 07:50:49;;;;;;;6.53;2.20;;;;;;;;;;5104887;28;20047;-73
2022/07/07 07:53:16;;;;;;;10.30;2.25;;;;;;;;;;5106292;28;20070;-72
2022/07/07 07:55:42;;;;;;;4.60;1.88;;;;;;;;;;5107917;28;20046;-73
2022/07/07 07:58:08;;;;;;;9.85;2.47;;;;;;;;;;5105300;27;20035;-73
2022/07/07 08:00:34;;;;;;;5.15;2.33;;;;;;;;;;5104296;27;20036;-72
2022/07/07 08:03:00;;;;;;;14.48;2.42;;;;;;;;;;5092576;28;20048;-73
2022/07/07 08:05:27;;;;;;;5.80;2.00;;;;;;;;;;5093529;28;20049;-73
2022/07/07 08:07:53;;;;;;;6.53;2.15;;;;;;;;;;5100201;28;20676;-73
2022/07/07 08:10:19;;;;;;;8.90;2.13;;;;;;;;;;5105691;28;20123;-72
2022/07/07 08:12:47;;;;;;;5.28;2.05;;;;;;;;;;5096490;27;20122;-72
2022/07/07 08:15:14;;;;;;;5.40;1.75;;;;;;;;;;5105460;28;20435;-72
2022/07/07 08:17:40;;;;;;;11.48;2.05;;;;;;;;;;5106408;28;20464;-72
2022/07/07 08:20:07;;;;;;;6.63;3.47;;;;;;;;;;5110061;27;20054;-72
2022/07/07 08:22:34;;;;;;;5.28;1.67;;;;;;;;;;5084757;28;20039;-72
2022/07/07 08:25:01;;;;;;;8.38;2.03;;;;;;;;;;5107003;28;20073;-72
2022/07/07 08:27:27;;;;;;;4.18;1.67;;;;;;;;;;5111522;27;20089;-72
2022/07/07 08:29:53;;;;;;;5.10;1.92;;;;;;;;;;5108776;27;20122;-72
2022/07/07 08:32:19;;;;;;;4.25;1.77;;;;;;;;;;5103057;28;20044;-72
2022/07/07 08:34:46;;;;;;;7.80;2.38;;;;;;;;;;5103983;28;20048;-72
2022/07/07 08:37:12;;;;;;;6.88;2.25;;;;;;;;;;5105062;27;20050;-72
2022/07/07 08:39:38;;;;;;;8.57;2.00;;;;;;;;;;5101071;28;20036;-72
2022/07/07 08:42:05;;;;;;;7.18;2.15;;;;;;;;;;5106224;28;20035;-72
2022/07/07 08:44:32;;;;;;;7.40;2.13;;;;;;;;;;5106131;28;20077;-72
2022/07/07 08:46:58;;;;;;;4.60;2.05;;;;;;;;;;5112892;27;20523;-72
2022/07/07 08:49:26;;;;;;;6.95;2.00;;;;;;;;;;5117398;28;20035;-72
2022/07/07 08:51:53;;;;;;;3.58;1.52;;;;;;;;;;5108600;28;20038;-73
2022/07/07 08:54:19;;;;;;;3.50;1.70;;;;;;;;;;5105813;28;20080;-73
2022/07/07 08:56:45;;;;;;;4.25;2.08;;;;;;;;;;5103213;28;20078;-72
2022/07/07 08:59:15;;;;;;;6.32;2.00;;;;;;;;;;5099141;28;20043;-73
2022/07/07 09:01:41;;;;;;;4.20;1.33;;;;;;;;;;5104052;28;20036;-73
2022/07/07 09:04:08;;;;;;;5.97;1.73;;;;;;;;;;5099649;28;20047;-72
2022/07/07 09:06:34;;;;;;;8.27;1.92;;;;;;;;;;5105774;28;20043;-72
2022/07/07 09:09:03;;;;;;;3.83;2.42;;;;;;;;;;5119614;27;20031;-72
2022/07/07 09:11:29;;;;;;;5.30;1.90;;;;;;;;;;5105719;28;20028;-72
2022/07/07 09:14:12;;;;;;;6.15;1.30;;;;;;;;;;5104269;28;20335;-72
2022/07/07 09:16:38;;;;;;;6.35;0.98;;;;;;;;;;5106933;28;20039;-72
2022/07/07 09:19:20;;;;;;;2.70;0.90;;;;;;;;;;5112072;28;20043;-73
2022/07/07 09:21:46;;;;;;;3.90;1.52;;;;;;;;;;5108304;28;20106;-72
2022/07/07 09:24:13;;;;;;;6.82;1.30;;;;;;;;;;5094606;28;20413;-73
2022/07/07 09:26:45;;;;;;;5.35;2.10;;;;;;;;;;5108741;28;20501;-72
2022/07/07 09:29:17;;;;;;;6.57;1.50;;;;;;;;;;5099615;28;20047;-72
2022/07/07 09:32:04;;;;;;;4.50;1.60;;;;;;;;;;5105323;28;20070;-72
2022/07/07 09:34:35;;;;;;;4.85;1.73;;;;;;;;;;5097364;28;20046;-73
2022/07/07 09:39:55;;;;;;;4.25;1.45;;;;;;;;;;5105421;28;20043;-72
2022/07/07 09:42:25;;;;;;;4.32;1.42;;;;;;;;;;5090783;28;20049;-72
2022/07/07 09:44:53;;;;;;;5.03;2.13;;;;;;;;;;5105815;28;20094;-73
2022/07/07 09:47:23;;;;;;;4.15;1.85;;;;;;;;;;5105243;28;20027;-73
2022/07/07 09:50:10;;;;;;;5.53;2.15;;;;;;;;;;5105737;28;20123;-70
2022/07/07 09:52:37;;;;;;;7.90;2.20;;;;;;;;;;5108933;28;20441;-69
2022/07/07 09:55:05;;;;;;;10.48;2.42;;;;;;;;;;5101406;28;20036;-73
2022/07/07 09:57:31;;;;;;;7.63;1.95;;;;;;;;;;5104384;28;20054;-72
2022/07/07 09:59:57;;;;;;;7.60;2.83;;;;;;;;;;5107774;28;20562;-72
2022/07/07 10:02:23;;;;;;;5.22;2.85;;;;;;;;;;5095501;28;20054;-72
2022/07/07 10:04:51;;;;;;;9.45;2.42;;;;;;;;;;5106909;28;20050;-72
2022/07/07 10:07:18;;;;;;;6.63;2.15;;;;;;;;;;5110616;27;20114;-72
2022/07/07 10:09:45;;;;;;;8.93;2.55;;;;;;;;;;5104774;27;20043;-72
2022/07/07 10:12:11;;;;;;;12.10;3.53;;;;;;;;;;5111532;28;20258;-72
2022/07/07 10:14:43;;;;;;;11.80;3.05;;;;;;;;;;5101523;28;20263;-72
2022/07/07 10:17:10;;;;;;;9.77;3.30;;;;;;;;;;5109947;28;20035;-72
2022/07/07 10:19:36;;;;;;;7.85;2.92;;;;;;;;;;5109779;27;20031;-71
2022/07/07 10:22:04;;;;;;;11.70;3.38;;;;;;;;;;5112237;27;20032;-72
2022/07/07 10:24:35;;;;;;;10.80;3.10;;;;;;;;;;5090659;28;20047;-72
2022/07/07 10:27:02;;;;;;;17.17;3.63;;;;;;;;;;5101403;28;20550;-72
2022/07/07 10:29:42;;;;;;;9.63;3.25;;;;;;;;;;5104192;28;20043;-72
2022/07/07 10:32:09;;;;;;;14.70;4.28;;;;;;;;;;5107848;28;20118;-72
2022/07/07 10:34:36;;;;;;;10.55;3.75;;;;;;;;;;5102740;28;20507;-72
2022/07/07 10:37:12;;;;;;;12.85;3.88;;;;;;;;;;5112317;27;20043;-72
2022/07/07 10:39:42;;;;;;;12.05;4.32;;;;;;;;;;5107279;27;20697;-72
2022/07/07 10:42:08;;;;;;;12.73;4.32;;;;;;;;;;5106844;28;20040;-72
2022/07/07 10:44:36;;;;;;;10.00;3.25;;;;;;;;;;5105138;28;20112;-71
2022/07/07 10:47:03;;;;;;;10.68;3.42;;;;;;;;;;5108896;28;20044;-72
2022/07/07 10:49:41;;;;;;;13.40;4.30;;;;;;;;;;5094729;28;20038;-71
2022/07/07 10:52:12;;;;;;;19.30;5.03;;;;;;;;;;5098508;28;20362;-72
2022/07/07 10:54:39;;;;;;;8.02;2.72;;;;;;;;;;5100816;28;20035;-71
2022/07/07 10:57:05;;;;;;;12.23;2.95;;;;;;;;;;5107754;27;20051;-72
2022/07/07 10:59:51;;;;;;;12.48;3.08;;;;;;;;;;5099624;28;20086;-72
2022/07/07 11:02:28;;;;;;;11.20;3.38;;;;;;;;;;5104218;28;20043;-72
2022/07/07 11:04:54;;;;;;;7.57;2.53;;;;;;;;;;5105124;28;20051;-72
2022/07/07 11:07:21;;;;;;;14.30;3.58;;;;;;;;;;5104729;28;20064;-71
2022/07/07 11:10:03;;;;;;;9.40;2.72;;;;;;;;;;5096993;28;20043;-72
2022/07/07 11:12:39;;;;;;;10.50;2.40;;;;;;;;;;5103527;28;20093;-72
2022/07/07 11:15:17;;;;;;;9.80;3.25;;;;;;;;;;5079128;28;20526;-72
2022/07/07 11:17:45;;;;;;;10.07;3.85;;;;;;;;;;5106149;28;20060;-72
2022/07/07 11:20:16;;;;;;;12.20;3.28;;;;;;;;;;5102425;28;20085;-72
2022/07/07 11:22:46;;;;;;;11.40;3.03;;;;;;;;;;5108344;27;20134;-72
2022/07/07 11:25:18;;;;;;;9.13;3.50;;;;;;;;;;5092596;28;20036;-72
2022/07/07 11:27:44;;;;;;;13.43;3.38;;;;;;;;;;5096866;28;20036;-72
2022/07/07 11:30:11;;;;;;;8.65;2.83;;;;;;;;;;5095307;28;20043;-72
2022/07/07 11:32:37;;;;;;;11.30;3.85;;;;;;;;;;5103492;28;20554;-73
2022/07/07 11:35:07;;;;;;;6.93;2.45;;;;;;;;;;5107853;27;20065;-72
2022/07/07 11:37:37;;;;;;;9.60;2.92;;;;;;;;;;5106337;28;20039;-72
2022/07/07 11:40:04;;;;;;;6.63;2.90;;;;;;;;;;5105828;27;20305;-72
2022/07/07 11:42:37;;;;;;;14.15;3.17;;;;;;;;;;5111478;27;20043;-72
2022/07/07 11:45:04;;;;;;;12.15;3.15;;;;;;;;;;5080541;28;20052;-72
2022/07/07 11:47:34;;;;;;;9.68;3.13;;;;;;;;;;5099900;27;20043;-72
2022/07/07 11:50:01;;;;;;;8.75;3.85;;;;;;;;;;5115891;27;20108;-72
2022/07/07 11:52:27;;;;;;;11.98;4.10;;;;;;;;;;5109710;27;20415;-71
2022/07/07 11:54:53;;;;;;;8.20;3.30;;;;;;;;;;5095361;28;20051;-72
2022/07/07 11:57:45;;;;;;;15.52;3.67;;;;;;;;;;5104895;28;20513;-72
2022/07/07 12:00:16;;;;;;;15.00;3.55;;;;;;;;;;5096959;27;20523;-72
2022/07/07 12:02:43;;;;;;;11.30;3.30;;;;;;;;;;5100070;27;20047;-72
2022/07/07 12:05:10;;;;;;;8.77;3.55;;;;;;;;;;5099677;27;20046;-72
2022/07/07 12:07:36;;;;;;;10.70;3.30;;;;;;;;;;5101613;28;20039;-72
2022/07/07 12:10:02;;;;;;;9.40;4.28;;;;;;;;;;5103481;27;20560;-72
2022/07/07 12:12:29;;;;;;;12.68;4.22;;;;;;;;;;5104370;28;20105;-72
2022/07/07 12:14:55;;;;;;;12.15;4.18;;;;;;;;;;5104674;27;20419;-72
2022/07/07 12:17:38;;;;;;;13.60;3.95;;;;;;;;;;5105430;28;20051;-72
2022/07/07 12:20:04;;;;;;;13.00;3.83;;;;;;;;;;5106040;27;20901;-72
2022/07/07 12:22:34;;;;;;;14.68;4.07;;;;;;;;;;5081569;28;20392;-72
2022/07/07 12:25:04;;;;;;;17.05;4.57;;;;;;;;;;5108363;27;20050;-72
2022/07/07 12:27:31;;;;;;;12.60;4.10;;;;;;;;;;5106187;27;20070;-72
2022/07/07 12:30:00;;;;;;;9.65;3.50;;;;;;;;;;5104768;28;20377;-72
2022/07/07 12:32:27;;;;;;;8.80;4.15;;;;;;;;;;5104533;28;20124;-71
2022/07/07 12:34:53;;;;;;;11.65;3.08;;;;;;;;;;5102237;28;20564;-71
2022/07/07 12:37:19;;;;;;;15.73;3.25;;;;;;;;;;5091176;28;20035;-72
2022/07/07 12:39:50;;;;;;;8.00;2.92;;;;;;;;;;5095349;28;20114;-72
2022/07/07 12:42:25;;;;;;;10.82;2.63;;;;;;;;;;5095666;28;20035;-71
2022/07/07 12:44:52;;;;;;;7.38;3.13;;;;;;;;;;5093987;28;20051;-71
2022/07/07 12:47:18;;;;;;;11.60;2.92;;;;;;;;;;5093224;28;20556;-71
2022/07/07 12:49:58;;;;;;;9.75;2.50;;;;;;;;;;5093179;28;20274;-72
2022/07/07 12:52:24;;;;;;;6.53;2.75;;;;;;;;;;5091270;28;20464;-72
2022/07/07 12:54:55;;;;;;;6.75;2.67;;;;;;;;;;5089485;28;20067;-72
2022/07/07 12:57:27;;;;;;;9.57;2.97;;;;;;;;;;5091045;28;20414;-72
2022/07/07 12:59:53;;;;;;;7.88;2.42;;;;;;;;;;5095574;28;20501;-72
2022/07/07 13:02:20;;;;;;;9.90;2.58;;;;;;;;;;5095628;28;20544;-72
2022/07/07 13:04:46;;;;;;;9.65;2.78;;;;;;;;;;5090686;28;20367;-72
2022/07/07 13:07:12;;;;;;;8.98;2.65;;;;;;;;;;5098974;28;20062;-73
2022/07/07 13:09:39;;;;;;;8.20;2.78;;;;;;;;;;5103158;28;20035;-72
2022/07/07 13:12:09;;;;;;;5.00;2.40;;;;;;;;;;5090607;28;20243;-72
2022/07/07 13:14:35;;;;;;;8.98;2.40;;;;;;;;;;5103760;28;20084;-72
2022/07/07 13:17:01;;;;;;;9.85;2.78;;;;;;;;;;5104683;28;20122;-72
2022/07/07 13:19:28;;;;;;;12.35;3.65;;;;;;;;;;5102872;28;20127;-73
2022/07/07 13:21:54;;;;;;;10.40;2.58;;;;;;;;;;5104575;27;20528;-72
2022/07/07 13:24:20;;;;;;;9.25;3.03;;;;;;;;;;5122711;27;20039;-72
2022/07/07 13:26:47;;;;;;;8.82;2.25;;;;;;;;;;5105575;28;20031;-72
2022/07/07 13:29:17;;;;;;;11.18;2.55;;;;;;;;;;5104503;27;20051;-72
2022/07/07 13:31:43;;;;;;;7.22;2.05;;;;;;;;;;5111038;27;20047;-72
2022/07/07 13:34:09;;;;;;;5.78;2.08;;;;;;;;;;5065617;28;20093;-72
2022/07/07 13:36:36;;;;;;;5.20;1.88;;;;;;;;;;5087220;28;20036;-72
2022/07/07 13:39:03;;;;;;;5.20;2.63;;;;;;;;;;5104955;28;20039;-72
2022/07/07 13:41:29;;;;;;;3.55;1.60;;;;;;;;;;5108635;27;20092;-72
2022/07/07 13:43:55;;;;;;;8.90;2.15;;;;;;;;;;5100869;28;20384;-72
2022/07/07 13:46:24;;;;;;;7.03;2.05;;;;;;;;;;5098038;28;20051;-72
2022/07/07 13:48:51;;;;;;;7.60;2.15;;;;;;;;;;5095791;28;20697;-72
2022/07/07 13:51:17;;;;;;;8.43;3.35;;;;;;;;;;5093894;28;20031;-72
2022/07/07 13:53:44;;;;;;;7.50;2.00;;;;;;;;;;5098608;28;20039;-71
2022/07/07 13:56:10;;;;;;;11.05;3.67;;;;;;;;;;5101912;28;20492;-72
2022/07/07 13:58:36;;;;;;;6.78;2.03;;;;;;;;;;5108895;27;20034;-72
2022/07/07 14:01:02;;;;;;;6.35;2.28;;;;;;;;;;5097126;28;20040;-72
2022/07/07 14:03:28;;;;;;;14.10;3.22;;;;;;;;;;5106930;28;20160;-72
2022/07/07 14:05:54;;;;;;;7.78;2.55;;;;;;;;;;5104812;27;20051;-72
2022/07/07 14:08:21;;;;;;;8.70;2.83;;;;;;;;;;5118625;27;20335;-72
2022/07/07 14:10:47;;;;;;;6.28;2.90;;;;;;;;;;5110042;27;20092;-72
2022/07/07 14:13:13;;;;;;;7.38;2.58;;;;;;;;;;5108759;27;20057;-72
2022/07/07 14:15:42;;;;;;;8.65;2.47;;;;;;;;;;5108111;27;20497;-72
2022/07/07 14:18:08;;;;;;;8.70;2.08;;;;;;;;;;5108975;27;20172;-72
2022/07/07 14:20:36;;;;;;;8.60;2.10;;;;;;;;;;5104733;27;20122;-72
2022/07/07 14:23:02;;;;;;;5.07;2.15;;;;;;;;;;5084952;28;20044;-72
2022/07/07 14:25:28;;;;;;;10.25;2.60;;;;;;;;;;5100829;27;20412;-72
2022/07/07 14:27:54;;;;;;;8.27;2.50;;;;;;;;;;5108308;28;20043;-72
2022/07/07 14:30:20;;;;;;;9.90;2.65;;;;;;;;;;5105926;28;20051;-73
2022/07/07 14:32:46;;;;;;;6.30;2.30;;;;;;;;;;5091291;28;20360;-72
2022/07/07 14:35:13;;;;;;;5.20;2.03;;;;;;;;;;5099300;27;20054;-72
2022/07/07 14:37:39;;;;;;;5.75;2.33;;;;;;;;;;5103491;28;20112;-72
2022/07/07 14:40:05;;;;;;;7.90;2.15;;;;;;;;;;5096846;28;20036;-72
2022/07/07 14:42:31;;;;;;;17.15;3.45;;;;;;;;;;5088009;28;20035;-72
2022/07/07 14:44:58;;;;;;;6.38;2.72;;;;;;;;;;5095030;27;20469;-71